createdAt,value
2016-12-07T00:00:40.447Z,0
2016-12-07T00:01:40.427Z,0
2016-12-07T00:02:40.714Z,0
2016-12-07T00:03:40.404Z,0
2016-12-07T00:04:40.387Z,0
2016-12-07T00:05:40.384Z,0
2016-12-07T00:06:40.364Z,0
2016-12-07T00:07:40.381Z,0
2016-12-07T00:08:40.340Z,0
2016-12-07T00:09:40.326Z,0
2016-12-07T00:10:40.927Z,0
2016-12-07T00:11:40.303Z,0
2016-12-07T00:12:40.281Z,0
2016-12-07T00:13:40.280Z,0
2016-12-07T00:14:40.569Z,0
2016-12-07T00:15:40.252Z,0
2016-12-07T00:16:40.238Z,0
2016-12-07T00:17:40.226Z,0
2016-12-07T00:18:40.215Z,0
2016-12-07T00:19:40.206Z,0
2016-12-07T00:20:40.188Z,0
2016-12-07T00:21:40.182Z,0
2016-12-07T00:22:40.166Z,0
2016-12-07T00:23:40.159Z,0
2016-12-07T00:24:40.137Z,0
2016-12-07T00:25:40.127Z,0
2016-12-07T00:26:40.114Z,0
2016-12-07T00:27:40.111Z,0
2016-12-07T00:28:40.086Z,0
2016-12-07T00:29:40.080Z,0
2016-12-07T00:30:40.072Z,0
2016-12-07T00:31:40.061Z,0
2016-12-07T00:32:40.042Z,0
2016-12-07T00:33:40.029Z,0
2016-12-07T00:34:40.017Z,0
2016-12-07T00:35:40.025Z,0
2016-12-07T00:36:40.290Z,0
2016-12-07T00:37:39.980Z,0
2016-12-07T00:38:39.965Z,0
2016-12-07T00:39:39.958Z,0
2016-12-07T00:40:39.946Z,0
2016-12-07T00:41:39.926Z,0
2016-12-07T00:42:39.930Z,0
2016-12-07T00:43:39.898Z,0
2016-12-07T00:44:39.890Z,0
2016-12-07T00:45:39.882Z,0
2016-12-07T00:46:39.863Z,0
2016-12-07T00:47:39.886Z,0
2016-12-07T00:48:39.834Z,0
2016-12-07T00:49:39.832Z,0
2016-12-07T00:50:39.814Z,0
2016-12-07T00:51:39.794Z,0
2016-12-07T00:52:39.796Z,0
2016-12-07T00:53:39.773Z,0
2016-12-07T00:54:39.778Z,0
2016-12-07T00:55:39.753Z,0
2016-12-07T00:56:39.746Z,0
2016-12-07T00:57:39.742Z,0
2016-12-07T00:58:39.710Z,0
2016-12-07T00:59:39.709Z,0
2016-12-07T01:00:39.689Z,0
2016-12-07T01:01:39.676Z,0
2016-12-07T01:02:39.955Z,0
2016-12-07T01:03:39.653Z,0
2016-12-07T01:04:39.645Z,0
2016-12-07T01:05:39.619Z,0
2016-12-07T01:06:39.615Z,0
2016-12-07T01:07:39.606Z,0
2016-12-07T01:08:39.889Z,0
2016-12-07T01:09:39.576Z,0
2016-12-07T01:10:39.565Z,0
2016-12-07T01:11:39.549Z,0
2016-12-07T01:12:39.537Z,0
2016-12-07T01:13:39.528Z,0
2016-12-07T01:14:39.523Z,0
2016-12-07T01:15:39.499Z,0
2016-12-07T01:16:39.491Z,0
2016-12-07T01:17:39.472Z,0
2016-12-07T01:18:39.471Z,0
2016-12-07T01:19:39.760Z,0
2016-12-07T01:20:39.445Z,0
2016-12-07T01:21:39.429Z,0
2016-12-07T01:22:39.413Z,0
2016-12-07T01:23:39.396Z,0
2016-12-07T01:24:39.394Z,0
2016-12-07T01:25:39.378Z,0
2016-12-07T01:26:39.375Z,0
2016-12-07T01:27:39.356Z,0
2016-12-07T01:28:39.335Z,0
2016-12-07T01:29:39.328Z,0
2016-12-07T01:30:39.345Z,0
2016-12-07T01:31:39.300Z,0
2016-12-07T01:32:39.291Z,0
2016-12-07T01:33:39.276Z,0
2016-12-07T01:34:39.266Z,0
2016-12-07T01:35:39.250Z,0
2016-12-07T01:36:39.244Z,0
2016-12-07T01:37:39.227Z,0
2016-12-07T01:38:39.218Z,0
2016-12-07T01:39:39.507Z,0
2016-12-07T01:40:39.188Z,0
2016-12-07T01:41:39.208Z,0
2016-12-07T01:42:39.162Z,0
2016-12-07T01:43:39.150Z,0
2016-12-07T01:44:39.134Z,0
2016-12-07T01:45:39.428Z,0
2016-12-07T01:46:39.121Z,0
2016-12-07T01:47:39.099Z,0
2016-12-07T01:48:39.081Z,0
2016-12-07T01:49:39.071Z,0
2016-12-07T01:50:39.061Z,0
2016-12-07T01:51:39.053Z,0
2016-12-07T01:52:39.037Z,0
2016-12-07T01:53:39.020Z,0
2016-12-07T01:54:39.007Z,0
2016-12-07T01:55:39.004Z,0
2016-12-07T01:56:38.982Z,0
2016-12-07T01:57:38.974Z,0
2016-12-07T01:58:39.267Z,0
2016-12-07T01:59:38.942Z,0
2016-12-07T02:00:38.939Z,0
2016-12-07T02:01:38.918Z,0
2016-12-07T02:02:38.902Z,0
2016-12-07T02:03:38.900Z,0
2016-12-07T02:04:38.877Z,0
2016-12-07T02:05:38.865Z,0
2016-12-07T02:06:38.852Z,0
2016-12-07T02:07:38.842Z,0
2016-12-07T02:08:38.829Z,0
2016-12-07T02:09:38.820Z,0
2016-12-07T02:10:38.835Z,0
2016-12-07T02:11:38.793Z,0
2016-12-07T02:12:38.778Z,0
2016-12-07T02:13:38.767Z,0
2016-12-07T02:14:38.753Z,0
2016-12-07T02:15:38.743Z,0
2016-12-07T02:16:38.719Z,0
2016-12-07T02:17:38.703Z,0
2016-12-07T02:18:38.709Z,0
2016-12-07T02:19:38.684Z,0
2016-12-07T02:20:38.687Z,0
2016-12-07T02:21:38.659Z,0
2016-12-07T02:22:38.676Z,0
2016-12-07T02:23:38.646Z,0
2016-12-07T02:24:38.935Z,0
2016-12-07T02:25:38.609Z,0
2016-12-07T02:26:38.602Z,0
2016-12-07T02:27:38.588Z,0
2016-12-07T02:28:38.576Z,0
2016-12-07T02:29:38.565Z,0
2016-12-07T02:30:38.552Z,0
2016-12-07T02:31:38.552Z,0
2016-12-07T02:32:38.521Z,0
2016-12-07T02:33:38.815Z,0
2016-12-07T02:34:38.494Z,0
2016-12-07T02:35:38.486Z,0
2016-12-07T02:36:38.470Z,0
2016-12-07T02:37:38.458Z,0
2016-12-07T02:38:38.452Z,0
2016-12-07T02:39:38.442Z,0
2016-12-07T02:40:38.732Z,0
2016-12-07T02:41:38.409Z,0
2016-12-07T02:42:38.398Z,0
2016-12-07T02:43:38.743Z,0
2016-12-07T02:44:38.378Z,0
2016-12-07T02:45:38.362Z,0
2016-12-07T02:46:38.345Z,0
2016-12-07T02:47:38.362Z,0
2016-12-07T02:48:38.327Z,0
2016-12-07T02:49:38.314Z,0
2016-12-07T02:50:38.301Z,0
2016-12-07T02:51:38.286Z,0
2016-12-07T02:52:38.274Z,0
2016-12-07T02:53:38.562Z,0
2016-12-07T02:54:38.249Z,0
2016-12-07T02:55:38.233Z,0
2016-12-07T02:56:38.223Z,0
2016-12-07T02:57:38.213Z,0
2016-12-07T02:58:38.193Z,0
2016-12-07T02:59:38.183Z,0
2016-12-07T03:00:38.168Z,0
2016-12-07T03:01:38.160Z,0
2016-12-07T03:02:38.147Z,0
2016-12-07T03:03:38.130Z,0
2016-12-07T03:04:38.129Z,0
2016-12-07T03:05:38.115Z,0
2016-12-07T03:06:38.101Z,0
2016-12-07T03:07:38.078Z,0
2016-12-07T03:08:38.064Z,0
2016-12-07T03:09:38.083Z,0
2016-12-07T03:10:38.048Z,0
2016-12-07T03:11:38.028Z,0
2016-12-07T03:12:38.021Z,0
2016-12-07T03:13:38.007Z,0
2016-12-07T03:14:37.997Z,0
2016-12-07T03:15:37.984Z,0
2016-12-07T03:16:37.976Z,0
2016-12-07T03:17:37.949Z,0
2016-12-07T03:18:37.947Z,0
2016-12-07T03:19:37.934Z,0
2016-12-07T03:20:37.919Z,0
2016-12-07T03:21:37.928Z,0
2016-12-07T03:22:37.896Z,0
2016-12-07T03:23:37.879Z,0
2016-12-07T03:24:37.868Z,0
2016-12-07T03:25:37.875Z,0
2016-12-07T03:26:37.842Z,0
2016-12-07T03:27:37.824Z,0
2016-12-07T03:28:38.112Z,0
2016-12-07T03:29:37.808Z,0
2016-12-07T03:30:37.788Z,0
2016-12-07T03:31:37.781Z,0
2016-12-07T03:32:37.767Z,0
2016-12-07T03:33:37.754Z,0
2016-12-07T03:34:37.757Z,0
2016-12-07T03:35:37.721Z,0
2016-12-07T03:36:37.711Z,0
2016-12-07T03:37:37.704Z,0
2016-12-07T03:39:16.061Z,0
2016-12-07T03:39:37.683Z,0
2016-12-07T03:40:37.666Z,0
2016-12-07T03:41:37.657Z,0
2016-12-07T03:42:37.643Z,0
2016-12-07T03:43:37.624Z,0
2016-12-07T03:44:37.611Z,0
2016-12-07T03:45:37.606Z,0
2016-12-07T03:46:37.886Z,0
2016-12-07T03:47:37.577Z,0
2016-12-07T03:48:37.567Z,0
2016-12-07T03:49:37.556Z,0
2016-12-07T03:50:37.542Z,0
2016-12-07T03:51:37.531Z,0
2016-12-07T03:52:37.515Z,0
2016-12-07T03:53:37.801Z,0
2016-12-07T03:54:37.487Z,0
2016-12-07T03:55:37.476Z,0
2016-12-07T03:56:37.459Z,0
2016-12-07T03:57:37.449Z,0
2016-12-07T03:58:37.435Z,0
2016-12-07T03:59:37.725Z,0
2016-12-07T04:00:37.406Z,0
2016-12-07T04:01:37.391Z,0
2016-12-07T04:02:37.388Z,0
2016-12-07T04:03:37.389Z,0
2016-12-07T04:04:37.353Z,0
2016-12-07T04:05:37.349Z,0
2016-12-07T04:06:37.338Z,0
2016-12-07T04:07:37.321Z,0
2016-12-07T04:08:37.316Z,0
2016-12-07T04:09:37.304Z,0
2016-12-07T04:10:37.281Z,0
2016-12-07T04:11:37.266Z,0
2016-12-07T04:12:37.267Z,0
2016-12-07T04:13:37.243Z,0
2016-12-07T04:14:37.234Z,0
2016-12-07T04:15:37.218Z,0
2016-12-07T04:16:37.210Z,0
2016-12-07T04:17:37.188Z,0
2016-12-07T04:18:37.178Z,0
2016-12-07T04:19:37.167Z,0
2016-12-07T04:20:37.156Z,0
2016-12-07T04:21:37.141Z,0
2016-12-07T04:22:37.163Z,0
2016-12-07T04:23:37.121Z,0
2016-12-07T04:24:37.106Z,0
2016-12-07T04:25:37.087Z,0
2016-12-07T04:26:37.071Z,0
2016-12-07T04:27:37.065Z,0
2016-12-07T04:28:37.056Z,0
2016-12-07T04:29:37.037Z,0
2016-12-07T04:30:37.034Z,0
2016-12-07T04:31:37.033Z,0
2016-12-07T04:32:36.999Z,0
2016-12-07T04:33:36.990Z,0
2016-12-07T04:34:36.974Z,0
2016-12-07T04:35:36.960Z,0
2016-12-07T04:36:36.944Z,0
2016-12-07T04:37:36.941Z,0
2016-12-07T04:38:36.918Z,0
2016-12-07T04:39:36.904Z,0
2016-12-07T04:40:36.894Z,0
2016-12-07T04:41:36.887Z,0
2016-12-07T04:42:36.870Z,0
2016-12-07T04:43:36.846Z,0
2016-12-07T04:44:37.140Z,0
2016-12-07T04:45:36.828Z,0
2016-12-07T04:46:36.820Z,0
2016-12-07T04:47:36.806Z,0
2016-12-07T04:48:36.784Z,0
2016-12-07T04:49:36.775Z,0
2016-12-07T04:50:36.767Z,0
2016-12-07T04:51:36.750Z,0
2016-12-07T04:52:36.737Z,0
2016-12-07T04:53:36.728Z,0
2016-12-07T04:54:36.703Z,0
2016-12-07T04:55:36.695Z,0
2016-12-07T04:56:36.685Z,0
2016-12-07T04:57:36.672Z,0
2016-12-07T04:58:36.662Z,0
2016-12-07T04:59:36.949Z,0
2016-12-07T05:00:36.634Z,0
2016-12-07T05:01:36.617Z,0
2016-12-07T05:02:36.605Z,0
2016-12-07T05:03:36.596Z,0
2016-12-07T05:04:36.577Z,0
2016-12-07T05:05:36.563Z,0
2016-12-07T05:06:36.553Z,0
2016-12-07T05:07:36.538Z,0
2016-12-07T05:08:36.530Z,0
2016-12-07T05:09:36.523Z,0
2016-12-07T05:10:36.492Z,0
2016-12-07T05:11:36.485Z,0
2016-12-07T05:12:36.476Z,0
2016-12-07T05:13:36.459Z,0
2016-12-07T05:14:36.448Z,0
2016-12-07T05:15:36.431Z,0
2016-12-07T05:16:36.414Z,0
2016-12-07T05:17:36.407Z,0
2016-12-07T05:18:36.395Z,0
2016-12-07T05:19:36.382Z,0
2016-12-07T05:20:36.376Z,0
2016-12-07T05:21:36.352Z,0
2016-12-07T05:22:36.364Z,0
2016-12-07T05:23:36.324Z,0
2016-12-07T05:24:36.320Z,0
2016-12-07T05:25:36.295Z,0
2016-12-07T05:26:36.282Z,0
2016-12-07T05:27:36.271Z,0
2016-12-07T05:28:36.263Z,0
2016-12-07T05:29:36.246Z,0
2016-12-07T05:30:36.228Z,0
2016-12-07T05:31:36.223Z,0
2016-12-07T05:32:36.209Z,0
2016-12-07T05:33:36.192Z,0
2016-12-07T05:34:36.178Z,0
2016-12-07T05:35:36.173Z,0
2016-12-07T05:36:36.151Z,0
2016-12-07T05:37:36.139Z,0
2016-12-07T05:38:36.130Z,0
2016-12-07T05:39:36.116Z,0
2016-12-07T05:40:36.099Z,0
2016-12-07T05:41:36.092Z,0
2016-12-07T05:42:36.381Z,0
2016-12-07T05:43:36.060Z,0
2016-12-07T05:44:36.052Z,0
2016-12-07T05:45:36.037Z,0
2016-12-07T05:46:36.014Z,0
2016-12-07T05:47:36.000Z,0
2016-12-07T05:48:36.023Z,0
2016-12-07T05:49:35.986Z,0
2016-12-07T05:50:35.973Z,0
2016-12-07T05:51:35.959Z,0
2016-12-07T05:52:35.937Z,0
2016-12-07T05:53:35.932Z,0
2016-12-07T05:54:35.919Z,0
2016-12-07T05:55:35.935Z,0
2016-12-07T05:56:35.882Z,0
2016-12-07T05:57:35.873Z,0
2016-12-07T05:58:35.857Z,0
2016-12-07T05:59:35.855Z,0
2016-12-07T06:00:35.841Z,0
2016-12-07T06:01:35.824Z,0
2016-12-07T06:02:35.813Z,0
2016-12-07T06:03:35.799Z,0
2016-12-07T06:04:35.779Z,0
2016-12-07T06:05:35.778Z,0
2016-12-07T06:06:35.758Z,0
2016-12-07T06:07:35.746Z,0
2016-12-07T06:08:35.729Z,0
2016-12-07T06:09:35.716Z,0
2016-12-07T06:10:35.734Z,0
2016-12-07T06:11:35.711Z,0
2016-12-07T06:12:35.677Z,0
2016-12-07T06:13:35.660Z,0
2016-12-07T06:14:35.654Z,0
2016-12-07T06:15:35.641Z,0
2016-12-07T06:16:35.619Z,0
2016-12-07T06:17:35.613Z,0
2016-12-07T06:18:35.597Z,0
2016-12-07T06:19:35.578Z,0
2016-12-07T06:20:35.578Z,0
2016-12-07T06:21:35.553Z,0
2016-12-07T06:22:35.546Z,0
2016-12-07T06:23:35.530Z,0
2016-12-07T06:24:35.519Z,0
2016-12-07T06:25:35.503Z,0
2016-12-07T06:26:35.494Z,0
2016-12-07T06:27:35.504Z,0
2016-12-07T06:28:35.468Z,0
2016-12-07T06:29:35.449Z,0
2016-12-07T06:30:35.434Z,0
2016-12-07T06:31:35.723Z,0
2016-12-07T06:32:35.420Z,0
2016-12-07T06:33:35.395Z,0
2016-12-07T06:34:35.385Z,0
2016-12-07T06:35:35.375Z,0
2016-12-07T06:36:35.657Z,0
2016-12-07T06:37:35.343Z,0
2016-12-07T06:38:35.638Z,0
2016-12-07T06:39:35.347Z,0
2016-12-07T06:40:35.296Z,0
2016-12-07T06:41:35.283Z,0
2016-12-07T06:42:35.580Z,0
2016-12-07T06:43:35.260Z,0
2016-12-07T06:44:35.549Z,0
2016-12-07T06:45:35.233Z,0
2016-12-07T06:46:35.518Z,0
2016-12-07T06:47:35.200Z,0
2016-12-07T06:48:35.194Z,0
2016-12-07T06:49:35.171Z,5
2016-12-07T06:50:35.479Z,5
2016-12-07T06:51:35.152Z,5
2016-12-07T06:52:35.131Z,5
2016-12-07T06:53:35.124Z,5
2016-12-07T06:54:35.411Z,5
2016-12-07T06:55:35.092Z,5
2016-12-07T06:56:35.082Z,10
2016-12-07T06:57:35.064Z,10
2016-12-07T06:58:35.067Z,10
2016-12-07T06:59:35.037Z,10
2016-12-07T07:00:35.019Z,10
2016-12-07T07:01:34.996Z,10
2016-12-07T07:02:34.984Z,10
2016-12-07T07:03:34.982Z,10
2016-12-07T07:04:34.967Z,10
2016-12-07T07:05:34.950Z,15
2016-12-07T07:06:34.932Z,15
2016-12-07T07:07:35.222Z,15
2016-12-07T07:08:34.906Z,15
2016-12-07T07:09:34.892Z,15
2016-12-07T07:10:35.484Z,20
2016-12-07T07:11:34.860Z,20
2016-12-07T07:12:34.843Z,20
2016-12-07T07:13:34.831Z,25
2016-12-07T07:14:34.817Z,25
2016-12-07T07:15:35.122Z,25
2016-12-07T07:16:34.791Z,30
2016-12-07T07:17:34.776Z,30
2016-12-07T07:18:34.758Z,30
2016-12-07T07:19:35.055Z,30
2016-12-07T07:20:34.740Z,30
2016-12-07T07:21:34.720Z,35
2016-12-07T07:22:34.705Z,35
2016-12-07T07:23:34.693Z,35
2016-12-07T07:24:34.680Z,35
2016-12-07T07:25:34.667Z,35
2016-12-07T07:26:34.653Z,40
2016-12-07T07:27:34.638Z,40
2016-12-07T07:28:34.631Z,40
2016-12-07T07:29:34.916Z,40
2016-12-07T07:30:34.893Z,45
2016-12-07T07:31:34.575Z,45
2016-12-07T07:32:35.168Z,45
2016-12-07T07:33:34.554Z,45
2016-12-07T07:34:34.541Z,45
2016-12-07T07:35:34.537Z,45
2016-12-07T07:36:34.513Z,45
2016-12-07T07:37:34.506Z,45
2016-12-07T07:38:34.485Z,50
2016-12-07T07:39:34.784Z,50
2016-12-07T07:40:34.484Z,50
2016-12-07T07:41:34.448Z,50
2016-12-07T07:42:34.434Z,55
2016-12-07T07:43:34.421Z,55
2016-12-07T07:44:34.407Z,55
2016-12-07T07:45:34.392Z,55
2016-12-07T07:46:34.368Z,55
2016-12-07T07:47:34.361Z,55
2016-12-07T07:48:34.347Z,55
2016-12-07T07:49:34.335Z,55
2016-12-07T07:50:34.313Z,55
2016-12-07T07:51:34.312Z,55
2016-12-07T07:52:34.294Z,55
2016-12-07T07:53:34.275Z,55
2016-12-07T07:54:34.563Z,55
2016-12-07T07:55:34.250Z,55
2016-12-07T07:56:34.544Z,55
2016-12-07T07:57:34.228Z,55
2016-12-07T07:58:34.209Z,55
2016-12-07T07:59:34.195Z,55
2016-12-07T08:00:34.185Z,60
2016-12-07T08:01:34.173Z,60
2016-12-07T08:02:34.151Z,60
2016-12-07T08:03:34.150Z,60
2016-12-07T08:04:34.127Z,65
2016-12-07T08:05:34.114Z,65
2016-12-07T08:06:34.102Z,65
2016-12-07T08:07:34.093Z,70
2016-12-07T08:08:34.075Z,75
2016-12-07T08:09:34.054Z,75
2016-12-07T08:10:34.046Z,80
2016-12-07T08:11:34.028Z,80
2016-12-07T08:12:34.020Z,85
2016-12-07T08:13:34.006Z,90
2016-12-07T08:14:33.996Z,85
2016-12-07T08:15:34.289Z,90
2016-12-07T08:16:33.959Z,95
2016-12-07T08:17:33.953Z,95
2016-12-07T08:18:33.941Z,100
2016-12-07T08:19:33.928Z,95
2016-12-07T08:20:33.942Z,100
2016-12-07T08:21:33.890Z,105
2016-12-07T08:22:34.187Z,105
2016-12-07T08:23:33.898Z,100
2016-12-07T08:24:33.861Z,110
2016-12-07T08:25:33.846Z,110
2016-12-07T08:26:33.838Z,105
2016-12-07T08:27:33.818Z,105
2016-12-07T08:28:33.803Z,105
2016-12-07T08:29:33.790Z,110
2016-12-07T08:30:33.775Z,110
2016-12-07T08:31:33.769Z,115
2016-12-07T08:32:33.753Z,115
2016-12-07T08:33:34.045Z,115
2016-12-07T08:34:33.739Z,120
2016-12-07T08:35:33.718Z,120
2016-12-07T08:36:33.698Z,120
2016-12-07T08:37:33.691Z,120
2016-12-07T08:38:33.673Z,120
2016-12-07T08:39:33.661Z,125
2016-12-07T08:40:33.652Z,130
2016-12-07T08:41:33.633Z,120
2016-12-07T08:42:33.620Z,120
2016-12-07T08:43:33.634Z,120
2016-12-07T08:44:33.606Z,125
2016-12-07T08:45:33.586Z,125
2016-12-07T08:46:33.601Z,125
2016-12-07T08:47:33.559Z,135
2016-12-07T08:48:33.844Z,140
2016-12-07T08:49:33.534Z,150
2016-12-07T08:50:33.536Z,145
2016-12-07T08:51:33.509Z,150
2016-12-07T08:52:33.503Z,150
2016-12-07T08:53:33.486Z,150
2016-12-07T08:54:33.503Z,145
2016-12-07T08:55:33.459Z,140
2016-12-07T08:56:33.455Z,140
2016-12-07T08:57:33.437Z,140
2016-12-07T08:58:33.426Z,145
2016-12-07T08:59:33.419Z,150
2016-12-07T09:00:33.700Z,160
2016-12-07T09:01:33.386Z,160
2016-12-07T09:02:33.372Z,165
2016-12-07T09:03:33.588Z,165
2016-12-07T09:04:33.342Z,170
2016-12-07T09:05:33.338Z,170
2016-12-07T09:06:33.324Z,175
2016-12-07T09:07:33.613Z,180
2016-12-07T09:08:33.293Z,180
2016-12-07T09:09:33.284Z,185
2016-12-07T09:10:33.476Z,185
2016-12-07T09:11:33.259Z,185
2016-12-07T09:12:33.254Z,185
2016-12-07T09:13:33.235Z,185
2016-12-07T09:14:33.225Z,185
2016-12-07T09:15:33.222Z,185
2016-12-07T09:16:33.209Z,190
2016-12-07T09:17:33.189Z,190
2016-12-07T09:18:33.172Z,195
2016-12-07T09:19:33.150Z,190
2016-12-07T09:20:33.172Z,200
2016-12-07T09:21:33.447Z,205
2016-12-07T09:22:33.118Z,215
2016-12-07T09:23:33.118Z,220
2016-12-07T09:24:33.105Z,225
2016-12-07T09:25:33.090Z,235
2016-12-07T09:26:33.081Z,235
2016-12-07T09:27:33.061Z,235
2016-12-07T09:28:33.046Z,240
2016-12-07T09:29:33.041Z,240
2016-12-07T09:30:33.023Z,235
2016-12-07T09:31:33.013Z,235
2016-12-07T09:32:33.006Z,240
2016-12-07T09:33:32.992Z,245
2016-12-07T09:34:32.999Z,235
2016-12-07T09:35:32.975Z,240
2016-12-07T09:36:32.946Z,230
2016-12-07T09:37:32.971Z,230
2016-12-07T09:38:32.923Z,220
2016-12-07T09:39:32.924Z,215
2016-12-07T09:40:32.934Z,225
2016-12-07T09:41:32.889Z,215
2016-12-07T09:42:32.881Z,215
2016-12-07T09:43:32.872Z,220
2016-12-07T09:44:32.855Z,210
2016-12-07T09:45:32.843Z,215
2016-12-07T09:46:33.144Z,220
2016-12-07T09:47:32.819Z,215
2016-12-07T09:48:32.818Z,215
2016-12-07T09:49:32.809Z,210
2016-12-07T09:50:32.821Z,205
2016-12-07T09:51:32.775Z,195
2016-12-07T09:52:32.763Z,195
2016-12-07T09:53:32.755Z,195
2016-12-07T09:54:32.935Z,195
2016-12-07T09:55:32.728Z,195
2016-12-07T09:56:32.715Z,195
2016-12-07T09:57:32.703Z,195
2016-12-07T09:58:32.699Z,190
2016-12-07T09:59:33.274Z,185
2016-12-07T10:00:32.680Z,175
2016-12-07T10:01:32.661Z,180
2016-12-07T10:02:32.652Z,180
2016-12-07T10:03:32.663Z,170
2016-12-07T10:04:32.625Z,160
2016-12-07T10:05:32.611Z,165
2016-12-07T10:06:32.932Z,165
2016-12-07T10:07:32.589Z,160
2016-12-07T10:08:32.572Z,155
2016-12-07T10:09:32.559Z,175
2016-12-07T10:10:32.854Z,165
2016-12-07T10:11:32.543Z,165
2016-12-07T10:12:32.529Z,165
2016-12-07T10:13:32.518Z,160
2016-12-07T10:14:32.504Z,155
2016-12-07T10:15:32.490Z,165
2016-12-07T10:16:32.484Z,155
2016-12-07T10:17:32.462Z,175
2016-12-07T10:18:32.451Z,155
2016-12-07T10:19:32.452Z,180
2016-12-07T10:20:32.740Z,160
2016-12-07T10:21:32.414Z,210
2016-12-07T10:22:32.406Z,180
2016-12-07T10:23:32.393Z,175
2016-12-07T10:24:32.379Z,190
2016-12-07T10:25:32.403Z,190
2016-12-07T10:26:32.360Z,190
2016-12-07T10:27:32.335Z,185
2016-12-07T10:28:32.333Z,190
2016-12-07T10:29:32.323Z,185
2016-12-07T10:30:32.310Z,185
2016-12-07T10:31:32.298Z,210
2016-12-07T10:32:32.587Z,185
2016-12-07T10:33:32.267Z,180
2016-12-07T10:34:32.284Z,190
2016-12-07T10:35:32.241Z,195
2016-12-07T10:36:32.238Z,185
2016-12-07T10:37:32.219Z,195
2016-12-07T10:38:32.216Z,190
2016-12-07T10:39:32.197Z,200
2016-12-07T10:40:32.788Z,190
2016-12-07T10:41:32.166Z,195
2016-12-07T10:42:32.161Z,195
2016-12-07T10:43:32.164Z,190
2016-12-07T10:44:32.133Z,205
2016-12-07T10:45:32.428Z,205
2016-12-07T10:46:32.111Z,200
2016-12-07T10:47:32.104Z,195
2016-12-07T10:48:32.097Z,195
2016-12-07T10:49:32.109Z,190
2016-12-07T10:50:32.066Z,185
2016-12-07T10:51:32.088Z,190
2016-12-07T10:52:32.045Z,185
2016-12-07T10:53:32.330Z,180
2016-12-07T10:54:32.020Z,175
2016-12-07T10:55:32.016Z,175
2016-12-07T10:56:32.000Z,175
2016-12-07T10:57:31.984Z,180
2016-12-07T10:58:31.974Z,175
2016-12-07T10:59:31.954Z,170
2016-12-07T11:00:31.955Z,170
2016-12-07T11:01:31.961Z,165
2016-12-07T11:02:31.928Z,165
2016-12-07T11:03:31.912Z,170
2016-12-07T11:04:31.894Z,165
2016-12-07T11:05:31.892Z,165
2016-12-07T11:06:31.884Z,165
2016-12-07T11:07:31.863Z,165
2016-12-07T11:08:31.858Z,170
2016-12-07T11:09:31.858Z,170
2016-12-07T11:10:31.834Z,165
2016-12-07T11:11:31.824Z,165
2016-12-07T11:12:31.799Z,165
2016-12-07T11:13:31.794Z,160
2016-12-07T11:14:31.791Z,155
2016-12-07T11:15:31.772Z,155
2016-12-07T11:16:31.766Z,150
2016-12-07T11:17:31.756Z,150
2016-12-07T11:18:31.732Z,150
2016-12-07T11:19:31.734Z,150
2016-12-07T11:20:31.708Z,150
2016-12-07T11:21:31.706Z,150
2016-12-07T11:22:31.897Z,145
2016-12-07T11:23:31.677Z,145
2016-12-07T11:24:31.667Z,150
2016-12-07T11:25:31.659Z,150
2016-12-07T11:26:31.638Z,145
2016-12-07T11:27:31.632Z,150
2016-12-07T11:28:31.625Z,150
2016-12-07T11:29:31.639Z,155
2016-12-07T11:30:31.803Z,155
2016-12-07T11:31:31.580Z,155
2016-12-07T11:32:31.580Z,155
2016-12-07T11:33:31.567Z,160
2016-12-07T11:34:31.567Z,155
2016-12-07T11:35:31.539Z,155
2016-12-07T11:36:31.529Z,150
2016-12-07T11:37:31.512Z,145
2016-12-07T11:38:31.497Z,140
2016-12-07T11:39:31.484Z,140
2016-12-07T11:40:31.479Z,140
2016-12-07T11:41:31.470Z,140
2016-12-07T11:42:31.465Z,140
2016-12-07T11:43:31.444Z,145
2016-12-07T11:44:31.426Z,150
2016-12-07T11:45:31.723Z,155
2016-12-07T11:46:31.405Z,155
2016-12-07T11:47:31.394Z,165
2016-12-07T11:48:31.378Z,170
2016-12-07T11:49:31.805Z,170
2016-12-07T11:50:31.360Z,175
2016-12-07T11:51:31.650Z,180
2016-12-07T11:52:31.534Z,180
2016-12-07T11:53:31.326Z,180
2016-12-07T11:54:31.306Z,180
2016-12-07T11:55:31.597Z,180
2016-12-07T11:56:31.280Z,180
2016-12-07T11:57:31.277Z,175
2016-12-07T11:58:31.271Z,175
2016-12-07T11:59:31.250Z,170
2016-12-07T12:00:31.249Z,170
2016-12-07T12:01:31.264Z,165
2016-12-07T12:02:31.226Z,165
2016-12-07T12:03:31.208Z,165
2016-12-07T12:04:31.185Z,165
2016-12-07T12:05:31.183Z,165
2016-12-07T12:06:31.170Z,165
2016-12-07T12:07:31.168Z,165
2016-12-07T12:08:31.169Z,165
2016-12-07T12:09:31.136Z,160
2016-12-07T12:10:31.129Z,160
2016-12-07T12:11:31.116Z,155
2016-12-07T12:12:31.104Z,160
2016-12-07T12:13:31.289Z,155
2016-12-07T12:14:31.085Z,150
2016-12-07T12:15:31.361Z,145
2016-12-07T12:16:31.062Z,140
2016-12-07T12:17:31.088Z,135
2016-12-07T12:18:31.639Z,130
2016-12-07T12:19:31.019Z,135
2016-12-07T12:20:31.018Z,130
2016-12-07T12:21:31.010Z,130
2016-12-07T12:22:30.987Z,130
2016-12-07T12:23:31.286Z,130
2016-12-07T12:24:30.970Z,130
2016-12-07T12:25:30.954Z,130
2016-12-07T12:26:30.952Z,135
2016-12-07T12:27:30.937Z,135
2016-12-07T12:28:30.920Z,140
2016-12-07T12:29:30.913Z,145
2016-12-07T12:30:30.902Z,145
2016-12-07T12:31:30.925Z,140
2016-12-07T12:32:31.178Z,145
2016-12-07T12:33:30.865Z,145
2016-12-07T12:34:30.849Z,145
2016-12-07T12:35:30.838Z,150
2016-12-07T12:36:30.836Z,150
2016-12-07T12:37:30.825Z,150
2016-12-07T12:38:30.832Z,150
2016-12-07T12:39:30.800Z,150
2016-12-07T12:40:30.781Z,145
2016-12-07T12:41:30.777Z,150
2016-12-07T12:42:30.761Z,150
2016-12-07T12:43:30.753Z,150
2016-12-07T12:44:30.746Z,150
2016-12-07T12:45:30.730Z,150
2016-12-07T12:46:30.721Z,145
2016-12-07T12:47:30.701Z,140
2016-12-07T12:48:30.694Z,140
2016-12-07T12:49:30.989Z,140
2016-12-07T12:50:30.676Z,140
2016-12-07T12:51:30.665Z,140
2016-12-07T12:52:30.652Z,135
2016-12-07T12:53:30.633Z,135
2016-12-07T12:54:30.633Z,135
2016-12-07T12:55:30.928Z,130
2016-12-07T12:56:30.606Z,130
2016-12-07T12:57:30.595Z,130
2016-12-07T12:58:30.583Z,130
2016-12-07T12:59:30.560Z,130
2016-12-07T13:00:30.563Z,130
2016-12-07T13:01:30.549Z,130
2016-12-07T13:02:30.529Z,130
2016-12-07T13:03:30.527Z,130
2016-12-07T13:04:30.525Z,125
2016-12-07T13:05:30.496Z,125
2016-12-07T13:06:30.492Z,125
2016-12-07T13:07:30.773Z,120
2016-12-07T13:08:30.466Z,120
2016-12-07T13:09:30.447Z,120
2016-12-07T13:10:30.449Z,115
2016-12-07T13:11:30.438Z,115
2016-12-07T13:12:30.421Z,110
2016-12-07T13:13:30.727Z,110
2016-12-07T13:14:30.704Z,105
2016-12-07T13:15:30.396Z,100
2016-12-07T13:16:30.381Z,95
2016-12-07T13:17:30.370Z,95
2016-12-07T13:18:30.354Z,95
2016-12-07T13:19:30.348Z,90
2016-12-07T13:20:30.340Z,90
2016-12-07T13:21:30.326Z,90
2016-12-07T13:22:30.313Z,90
2016-12-07T13:23:30.301Z,90
2016-12-07T13:24:30.291Z,90
2016-12-07T13:25:30.775Z,90
2016-12-07T13:26:30.574Z,90
2016-12-07T13:27:30.454Z,95
2016-12-07T13:28:30.251Z,95
2016-12-07T13:29:30.673Z,100
2016-12-07T13:30:30.420Z,105
2016-12-07T13:31:30.212Z,105
2016-12-07T13:32:30.193Z,110
2016-12-07T13:33:30.191Z,110
2016-12-07T13:34:30.176Z,110
2016-12-07T13:35:30.372Z,105
2016-12-07T13:36:30.159Z,105
2016-12-07T13:37:30.142Z,100
2016-12-07T13:38:30.436Z,100
2016-12-07T13:39:30.119Z,95
2016-12-07T13:40:30.110Z,90
2016-12-07T13:41:30.102Z,85
2016-12-07T13:42:30.288Z,80
2016-12-07T13:43:30.080Z,80
2016-12-07T13:44:30.065Z,75
2016-12-07T13:45:30.262Z,75
2016-12-07T13:46:30.035Z,70
2016-12-07T13:47:30.034Z,70
2016-12-07T13:48:30.021Z,70
2016-12-07T13:49:30.037Z,65
2016-12-07T13:50:30.398Z,65
2016-12-07T13:51:29.986Z,60
2016-12-07T13:52:29.976Z,60
2016-12-07T13:53:30.166Z,55
2016-12-07T13:54:29.949Z,55
2016-12-07T13:55:29.943Z,55
2016-12-07T13:56:29.945Z,50
2016-12-07T13:57:29.924Z,50
2016-12-07T13:58:29.957Z,45
2016-12-07T13:59:29.897Z,40
2016-12-07T14:00:29.891Z,40
2016-12-07T14:01:30.171Z,40
2016-12-07T14:02:29.877Z,40
2016-12-07T14:03:29.861Z,40
2016-12-07T14:04:29.841Z,40
2016-12-07T14:05:29.825Z,35
2016-12-07T14:06:29.819Z,35
2016-12-07T14:07:30.037Z,35
2016-12-07T14:08:29.797Z,35
2016-12-07T14:09:29.781Z,35
2016-12-07T14:10:29.776Z,35
2016-12-07T14:11:30.068Z,35
2016-12-07T14:12:29.747Z,35
2016-12-07T14:13:29.740Z,35
2016-12-07T14:14:29.766Z,30
2016-12-07T14:15:29.723Z,30
2016-12-07T14:16:29.710Z,30
2016-12-07T14:17:29.698Z,30
2016-12-07T14:18:29.682Z,30
2016-12-07T14:19:29.672Z,30